Time;durP1;ratioP1;P1;durP2;ratioP2;P2;SDS_P1;SDS_P2;PMS_P1;PMS_P2;Temp;Humidity;BMP_temperature;BMP_pressure;BME280_temperature;BME280_humidity;BME280_pressure;Samples;Min_cycle;Max_cycle;Signal;HPM_P1;HPM_P2
2023/08/05 00:00:26;;;;;;;5.03;2.00;;;;;;;15.46;80.28;92486.97;2041408;70;20516;-81
2023/08/05 00:02:52;;;;;;;7.97;1.70;;;;;;;15.56;79.98;92492.31;2041614;70;20644;-81
2023/08/05 00:05:18;;;;;;;4.80;1.70;;;;;;;15.55;80.49;92496.53;2041568;70;20151;-81
2023/08/05 00:07:44;;;;;;;7.18;1.90;;;;;;;15.51;80.31;92500.66;2041403;70;20191;-81
2023/08/05 00:10:09;;;;;;;8.27;1.90;;;;;;;15.55;80.13;92496.53;2041212;70;20163;-81
2023/08/05 00:12:35;;;;;;;4.50;1.63;;;;;;;15.56;79.60;92489.50;2041227;70;20163;-82
2023/08/05 00:15:01;;;;;;;3.78;1.67;;;;;;;15.60;78.91;92498.16;2041053;70;20173;-82
2023/08/05 00:17:26;;;;;;;7.15;1.92;;;;;;;15.51;80.08;92494.28;2037576;70;20257;-81
2023/08/05 00:19:52;;;;;;;4.13;1.50;;;;;;;15.57;79.08;92497.34;2041829;70;20220;-82
2023/08/05 00:22:21;;;;;;;2.38;1.50;;;;;;;15.48;79.58;92501.25;2041932;70;20620;-82
2023/08/05 00:24:47;;;;;;;5.78;1.80;;;;;;;15.45;79.11;92502.56;2041631;70;20143;-82
2023/08/05 00:27:12;;;;;;;4.70;1.70;;;;;;;15.30;79.85;92495.56;2041872;70;20541;-81
2023/08/05 00:29:38;;;;;;;3.63;1.33;;;;;;;15.26;80.38;92489.75;2038049;70;20222;-81
2023/08/05 00:32:04;;;;;;;4.25;1.40;;;;;;;15.33;80.08;92494.28;2041830;70;20202;-82
2023/08/05 00:34:30;;;;;;;6.32;1.58;;;;;;;15.28;80.76;92489.09;2038616;70;20172;-82
2023/08/05 00:36:56;;;;;;;3.90;1.45;;;;;;;15.27;80.96;92493.31;2041133;70;20534;-83
2023/08/05 00:39:21;;;;;;;5.85;1.30;;;;;;;15.31;80.43;92488.53;2041305;70;20183;-81
2023/08/05 00:41:47;;;;;;;2.33;1.52;;;;;;;15.23;81.23;92479.69;2038136;70;20147;-82
2023/08/05 00:44:13;;;;;;;2.60;1.65;;;;;;;15.17;81.00;92479.47;2037992;70;20147;-82
2023/08/05 00:46:38;;;;;;;5.57;1.63;;;;;;;15.16;80.94;92466.63;2041600;70;20622;-81
2023/08/05 00:49:04;;;;;;;3.03;1.48;;;;;;;15.22;80.20;92458.41;2041550;70;20197;-82
2023/08/05 00:51:30;;;;;;;3.30;1.70;;;;;;;15.33;79.32;92457.41;2037882;70;20147;-82
2023/08/05 00:53:56;;;;;;;2.63;1.60;;;;;;;15.33;79.88;92454.56;2041145;70;20146;-82
2023/08/05 00:56:22;;;;;;;3.85;1.30;;;;;;;15.30;80.29;92449.47;2038081;70;20170;-82
2023/08/05 00:58:47;;;;;;;4.57;1.55;;;;;;;15.25;80.41;92452.13;2037990;70;20147;-82
2023/08/05 01:01:13;;;;;;;3.72;1.85;;;;;;;15.19;80.92;92448.34;2041183;70;20170;-82
2023/08/05 01:03:39;;;;;;;4.53;1.45;;;;;;;15.17;80.82;92448.28;2041437;70;20152;-82
2023/08/05 01:06:07;;;;;;;3.92;1.52;;;;;;;15.21;80.76;92449.16;2041844;70;20203;-82
2023/08/05 01:08:34;;;;;;;6.80;1.60;;;;;;;15.23;80.21;92449.22;2038200;70;20606;-81
2023/08/05 01:11:03;;;;;;;3.72;1.80;;;;;;;15.18;80.34;92441.22;2037996;70;20218;-80
2023/08/05 01:13:32;;;;;;;6.38;1.75;;;;;;;15.18;80.50;92438.38;2038058;70;20159;-79
2023/08/05 01:15:58;;;;;;;4.53;1.30;;;;;;;15.16;80.45;92438.28;2037553;70;20163;-81
2023/08/05 01:18:27;;;;;;;2.83;1.48;;;;;;;15.20;80.04;92427.13;2038252;70;20242;-82
2023/08/05 01:20:54;;;;;;;4.72;1.27;;;;;;;15.18;79.77;92427.78;2038315;70;20159;-82
2023/08/05 01:23:30;;;;;;;2.58;1.40;;;;;;;15.10;80.13;92432.38;2041493;70;20186;-81
2023/08/05 01:25:58;;;;;;;5.85;1.27;;;;;;;15.10;79.75;92429.56;2041690;70;20156;-81
2023/08/05 01:28:24;;;;;;;3.45;1.30;;;;;;;15.08;80.13;92416.03;2038251;70;20433;-81
2023/08/05 01:30:51;;;;;;;1.55;1.10;;;;;;;15.10;79.37;92418.94;2038140;70;20616;-82
2023/08/05 01:33:18;;;;;;;2.47;1.13;;;;;;;14.98;79.79;92404.28;2038231;70;20147;-82
2023/08/05 01:35:51;;;;;;;5.07;1.10;;;;;;;15.05;80.08;92391.09;2035507;70;20159;-81
2023/08/05 01:38:17;;;;;;;6.03;1.10;;;;;;;14.96;80.59;92381.53;2041425;70;20151;-81
2023/08/05 01:40:44;;;;;;;2.20;1.02;;;;;;;15.05;79.77;92374.06;2041613;70;20274;-82
2023/08/05 01:43:10;;;;;;;2.78;1.10;;;;;;;14.98;80.50;92371.00;2041621;70;20215;-81
2023/08/05 01:45:36;;;;;;;3.40;1.20;;;;;;;14.95;80.49;92371.56;2038085;70;20140;-81
2023/08/05 01:48:04;;;;;;;7.38;1.20;;;;;;;14.98;80.28;92379.50;2039690;70;20146;-82
2023/08/05 01:50:29;;;;;;;3.60;1.20;;;;;;;15.00;80.37;92390.91;2037630;70;20147;-81
2023/08/05 01:52:55;;;;;;;2.22;1.13;;;;;;;15.04;79.87;92413.03;2038252;70;20486;-82
2023/08/05 01:55:21;;;;;;;2.60;1.08;;;;;;;14.99;80.88;92419.94;2037635;70;20588;-81
2023/08/05 01:57:46;;;;;;;3.38;1.20;;;;;;;15.01;79.80;92417.16;2034829;70;20156;-82
2023/08/05 02:00:12;;;;;;;2.75;1.20;;;;;;;14.98;80.38;92405.03;2037503;70;20154;-81
2023/08/05 02:02:41;;;;;;;6.00;1.20;;;;;;;15.03;80.11;92399.50;2038112;70;20142;-81
2023/08/05 02:05:06;;;;;;;3.25;1.40;;;;;;;15.06;79.75;92392.53;2038186;70;20159;-81
2023/08/05 02:07:32;;;;;;;3.85;1.30;;;;;;;14.92;80.31;92392.69;2038170;70;20159;-82
2023/08/05 02:09:58;;;;;;;6.57;1.52;;;;;;;14.84;80.92;92384.59;2038159;70;20701;-82
2023/08/05 02:12:26;;;;;;;4.43;1.23;;;;;;;14.79;81.48;92402.09;2037665;70;20186;-82
2023/08/05 02:14:52;;;;;;;3.05;1.10;;;;;;;14.87;80.70;92411.66;2037506;70;20592;-81
2023/08/05 02:17:18;;;;;;;3.45;1.10;;;;;;;14.86;80.90;92398.13;2037548;70;20140;-80
2023/08/05 02:19:44;;;;;;;6.45;1.20;;;;;;;14.90;80.39;92418.88;2037623;70;20167;-81
2023/08/05 02:22:10;;;;;;;3.38;1.10;;;;;;;14.87;80.75;92419.44;2037555;70;20143;-81
2023/08/05 02:24:35;;;;;;;3.28;1.13;;;;;;;14.86;81.04;92418.69;2038163;70;20164;-82
2023/08/05 02:27:01;;;;;;;4.40;1.10;;;;;;;14.73;81.08;92419.56;2038117;70;20147;-82
2023/08/05 02:29:26;;;;;;;2.42;1.10;;;;;;;14.86;80.40;92423.63;2038126;70;20147;-83
2023/08/05 02:31:52;;;;;;;2.58;1.00;;;;;;;14.80;81.12;92414.88;2038108;70;20179;-82
2023/08/05 02:34:18;;;;;;;6.00;1.77;;;;;;;14.82;80.46;92403.63;2037581;70;20143;-82
2023/08/05 02:36:43;;;;;;;5.38;1.23;;;;;;;14.86;80.70;92417.97;2038123;70;20259;-82
2023/08/05 02:39:09;;;;;;;3.15;1.30;;;;;;;14.87;81.19;92419.44;2038062;70;20522;-83
2023/08/05 02:41:34;;;;;;;4.07;1.23;;;;;;;14.77;81.49;92421.84;2037504;70;20135;-82
2023/08/05 02:44:00;;;;;;;2.72;1.27;;;;;;;14.82;80.88;92421.38;2038066;70;20147;-82
2023/08/05 02:46:25;;;;;;;5.57;1.40;;;;;;;14.73;81.51;92422.41;2037537;70;20143;-82
2023/08/05 02:48:53;;;;;;;2.90;1.10;;;;;;;14.84;80.79;92426.38;2038031;70;20175;-82
2023/08/05 02:51:18;;;;;;;5.07;1.10;;;;;;;14.77;80.97;92419.75;2038540;70;20155;-80
2023/08/05 02:53:44;;;;;;;3.63;1.15;;;;;;;14.80;80.97;92426.97;2037995;70;20159;-79
2023/08/05 02:56:11;;;;;;;3.38;1.30;;;;;;;14.69;81.56;92431.47;2037997;70;20522;-80
2023/08/05 02:58:37;;;;;;;3.03;0.90;;;;;;;14.70;81.62;92435.03;2038450;70;20227;-83
2023/08/05 03:01:09;;;;;;;1.42;1.17;;;;;;;14.75;81.36;92436.66;2037951;70;20148;-80
2023/08/05 03:03:36;;;;;;;4.30;1.20;;;;;;;14.67;81.83;92437.06;2038536;70;20139;-81
2023/08/05 03:06:02;;;;;;;4.03;1.23;;;;;;;14.63;82.17;92436.16;2038448;70;20191;-81
2023/08/05 03:08:27;;;;;;;2.33;1.30;;;;;;;14.69;81.65;92433.56;2038509;70;20541;-81
2023/08/05 03:11:01;;;;;;;3.30;1.10;;;;;;;14.78;81.49;92443.13;2038490;70;20594;-82
2023/08/05 03:13:28;;;;;;;6.22;1.30;;;;;;;14.78;81.24;92448.81;2038507;70;20602;-81
2023/08/05 03:15:56;;;;;;;4.05;1.13;;;;;;;14.77;81.72;92444.53;2038555;70;20159;-80
2023/08/05 03:18:22;;;;;;;4.57;1.20;;;;;;;14.72;81.95;92444.34;2041746;70;20158;-81
2023/08/05 03:20:48;;;;;;;4.40;1.30;;;;;;;14.70;82.23;92432.91;2035792;70;20144;-81
2023/08/05 03:23:16;;;;;;;3.38;1.35;;;;;;;14.68;82.27;92421.50;2041737;70;20155;-80
2023/08/05 03:25:46;;;;;;;4.10;1.40;;;;;;;14.71;81.47;92408.19;2038437;70;20174;-80
2023/08/05 03:28:13;;;;;;;3.53;1.30;;;;;;;14.63;82.51;92422.72;2038338;70;20243;-81
2023/08/05 03:30:45;;;;;;;5.15;1.30;;;;;;;14.73;82.53;92440.13;2038174;70;20159;-81
2023/08/05 03:33:16;;;;;;;2.75;1.20;;;;;;;14.76;81.68;92446.63;2035747;70;20259;-79
2023/08/05 03:35:45;;;;;;;4.55;1.30;;;;;;;14.79;82.48;92448.16;2038360;70;20144;-81
2023/08/05 03:38:14;;;;;;;3.58;1.52;;;;;;;14.77;81.67;92439.56;2041730;70;20144;-81
2023/08/05 03:40:40;;;;;;;5.88;1.50;;;;;;;14.73;82.20;92440.13;2038340;70;20159;-80
2023/08/05 03:43:06;;;;;;;3.80;1.48;;;;;;;14.76;82.25;92448.72;2038321;70;20147;-81
2023/08/05 03:45:32;;;;;;;2.92;1.42;;;;;;;14.68;82.45;92451.94;2038210;70;20162;-81
2023/08/05 03:47:59;;;;;;;3.85;1.20;;;;;;;14.75;82.20;92470.66;2038118;70;20167;-81
2023/08/05 03:50:28;;;;;;;4.65;1.30;;;;;;;14.72;82.24;92466.28;2038284;70;20258;-80
2023/08/05 03:52:55;;;;;;;5.50;1.50;;;;;;;14.75;82.54;92462.16;2038275;70;20680;-81
2023/08/05 03:55:21;;;;;;;5.72;1.40;;;;;;;14.79;80.95;92450.97;2041527;70;20155;-80
2023/08/05 03:57:48;;;;;;;3.45;1.50;;;;;;;14.83;81.55;92459.66;2038263;70;20161;-81
2023/08/05 04:00:14;;;;;;;6.57;1.63;;;;;;;14.84;81.63;92460.38;2041356;70;20602;-80
2023/08/05 04:02:41;;;;;;;3.95;1.40;;;;;;;14.80;81.82;92449.63;2041457;70;20163;-81
2023/08/05 04:05:09;;;;;;;3.13;1.42;;;;;;;14.72;82.39;92450.03;2038165;70;20598;-81
2023/08/05 04:07:34;;;;;;;2.25;1.35;;;;;;;14.77;82.63;92447.34;2041502;70;20604;-81
2023/08/05 04:10:00;;;;;;;4.63;1.35;;;;;;;14.77;82.03;92444.53;2038182;70;20154;-82
2023/08/05 04:12:26;;;;;;;2.67;1.20;;;;;;;14.77;82.29;92444.53;2038096;70;20240;-81
2023/08/05 04:14:53;;;;;;;6.07;1.10;;;;;;;14.74;82.16;92441.59;2038190;70;20608;-81
2023/08/05 04:17:21;;;;;;;4.97;1.30;;;;;;;14.70;82.57;92441.41;2041508;70;20517;-81
2023/08/05 04:19:48;;;;;;;3.70;1.50;;;;;;;14.70;82.83;92452.03;2038193;70;20154;-82
2023/08/05 04:22:16;;;;;;;4.30;1.25;;;;;;;14.77;82.04;92447.34;2041489;70;20159;-81
2023/08/05 04:24:45;;;;;;;6.10;1.30;;;;;;;14.78;82.08;92455.19;2038203;70;20148;-82
2023/08/05 04:27:11;;;;;;;2.13;1.10;;;;;;;14.81;81.20;92447.53;2041453;70;20671;-81
2023/08/05 04:29:37;;;;;;;5.18;1.45;;;;;;;14.85;81.74;92445.59;2041404;70;20151;-81
2023/08/05 04:32:03;;;;;;;5.03;1.33;;;;;;;14.78;82.41;92438.19;2041524;70;20147;-81
2023/08/05 04:34:33;;;;;;;3.00;1.60;;;;;;;14.78;82.28;92438.19;2041596;70;20213;-80
2023/08/05 04:37:19;;;;;;;3.10;1.33;;;;;;;14.83;82.34;92433.44;2041640;70;20207;-82
2023/08/05 04:39:45;;;;;;;6.00;1.50;;;;;;;14.82;81.83;92440.47;2041661;70;20171;-82
2023/08/05 04:42:11;;;;;;;2.42;1.23;;;;;;;14.90;81.76;92435.88;2041576;70;20605;-81
2023/08/05 04:44:40;;;;;;;3.88;1.30;;;;;;;14.85;82.85;92437.09;2041335;70;20143;-82
2023/08/05 04:47:10;;;;;;;4.20;1.60;;;;;;;14.84;83.01;92440.53;2041467;70;20146;-82
2023/08/05 04:49:38;;;;;;;7.03;1.40;;;;;;;14.84;82.37;92438.44;2041430;70;20135;-81
2023/08/05 04:52:08;;;;;;;2.55;1.30;;;;;;;14.84;82.86;92432.78;2041507;70;20167;-82
2023/08/05 04:54:43;;;;;;;2.47;1.40;;;;;;;14.86;82.79;92437.81;2041461;70;20514;-81
2023/08/05 04:57:17;;;;;;;3.78;1.40;;;;;;;14.90;82.59;92435.88;2041353;70;20153;-81
2023/08/05 04:59:42;;;;;;;3.42;1.38;;;;;;;14.92;81.62;92438.06;2041246;70;20166;-82
2023/08/05 05:02:08;;;;;;;3.42;1.40;;;;;;;14.91;82.46;92445.81;2041331;70;20186;-83
2023/08/05 05:04:34;;;;;;;5.93;1.42;;;;;;;14.92;82.31;92440.88;2041419;70;20227;-83
2023/08/05 05:07:00;;;;;;;3.53;1.13;;;;;;;14.96;81.82;92444.59;2041370;70;20218;-83
2023/08/05 05:09:25;;;;;;;3.40;1.33;;;;;;;14.96;82.80;92446.72;2041400;70;20162;-82
2023/08/05 05:11:53;;;;;;;2.67;1.27;;;;;;;14.94;82.88;92447.38;2041283;70;20182;-83
2023/08/05 05:14:20;;;;;;;5.85;1.30;;;;;;;14.95;82.39;92451.66;2041196;70;20154;-82
2023/08/05 05:16:45;;;;;;;3.53;1.42;;;;;;;15.00;82.22;92455.38;2041398;70;20238;-81
2023/08/05 05:19:11;;;;;;;3.53;1.67;;;;;;;14.97;82.43;92451.72;2041256;70;20146;-82
2023/08/05 05:21:36;;;;;;;4.38;1.70;;;;;;;14.96;82.41;92449.56;2041252;70;20136;-82
2023/08/05 05:24:02;;;;;;;5.55;1.60;;;;;;;14.98;82.26;92456.03;2041286;70;20155;-81
2023/08/05 05:26:28;;;;;;;3.78;1.50;;;;;;;14.99;82.87;92466.00;2041273;70;20139;-82
2023/08/05 05:28:53;;;;;;;4.13;1.65;;;;;;;14.95;82.14;92467.94;2041201;70;20139;-82
2023/08/05 05:31:20;;;;;;;4.53;1.67;;;;;;;15.01;82.34;92471.00;2041246;70;20633;-81
2023/08/05 05:33:47;;;;;;;4.10;1.95;;;;;;;14.94;82.77;92464.38;2038102;70;20183;-82
2023/08/05 05:36:13;;;;;;;2.97;1.90;;;;;;;15.00;82.56;92469.56;2035481;70;20204;-82
2023/08/05 05:38:39;;;;;;;3.30;1.63;;;;;;;15.04;82.37;92466.16;2041260;70;20196;-81
2023/08/05 05:41:04;;;;;;;4.57;2.08;;;;;;;14.76;83.35;92474.22;2041225;70;20163;-81
2023/08/05 05:43:30;;;;;;;3.17;2.33;;;;;;;14.73;83.94;92482.63;2041288;70;20182;-81
2023/08/05 05:45:55;;;;;;;3.88;2.55;;;;;;;14.88;83.93;92488.91;2041266;70;20147;-81
2023/08/05 05:48:21;;;;;;;4.25;2.42;;;;;;;14.93;83.49;92482.75;2038050;70;20186;-84
2023/08/05 05:50:51;;;;;;;3.05;1.90;;;;;;;14.96;82.95;92484.28;2041291;70;20226;-82
2023/08/05 05:53:17;;;;;;;6.57;2.08;;;;;;;14.95;83.02;92482.13;2041309;70;20644;-83
2023/08/05 05:55:47;;;;;;;5.55;1.77;;;;;;;14.98;83.54;92487.22;2038106;70;20148;-82
2023/08/05 05:58:13;;;;;;;4.00;1.90;;;;;;;15.08;83.14;92483.34;2041297;70;20178;-82
2023/08/05 06:00:39;;;;;;;4.72;2.08;;;;;;;15.09;82.57;92476.28;2041217;70;20205;-83
2023/08/05 06:03:06;;;;;;;4.97;1.67;;;;;;;15.12;81.60;92478.56;2038184;70;20562;-82
2023/08/05 06:05:31;;;;;;;7.95;1.90;;;;;;;15.13;82.02;92496.31;2041273;70;20669;-82
2023/08/05 06:07:58;;;;;;;4.20;1.80;;;;;;;15.10;82.74;92483.41;2038007;70;20155;-83
2023/08/05 06:10:23;;;;;;;2.90;1.63;;;;;;;15.09;83.49;92484.81;2037985;70;20525;-81
2023/08/05 06:12:49;;;;;;;5.03;1.58;;;;;;;15.17;83.09;92479.47;2041315;70;20186;-84
2023/08/05 06:15:15;;;;;;;5.10;1.92;;;;;;;15.23;82.23;92476.88;2037942;70;20166;-81
2023/08/05 06:17:40;;;;;;;4.15;1.70;;;;;;;15.21;83.12;92488.09;2041239;70;20155;-82
2023/08/05 06:20:07;;;;;;;5.82;2.25;;;;;;;15.14;83.88;92500.59;2041283;70;20151;-82
2023/08/05 06:22:32;;;;;;;5.07;2.30;;;;;;;15.29;82.85;92484.88;2037817;70;20554;-84
2023/08/05 06:24:58;;;;;;;6.22;3.00;;;;;;;15.25;82.27;92491.09;2041586;70;20691;-81
2023/08/05 06:27:23;;;;;;;4.60;3.05;;;;;;;15.35;82.23;92488.69;2041760;70;20274;-81
2023/08/05 06:29:49;;;;;;;7.00;2.40;;;;;;;15.45;81.66;92488.38;2041656;70;20155;-80
2023/08/05 06:32:18;;;;;;;4.95;2.50;;;;;;;15.37;81.49;92477.44;2041722;70;20167;-81
2023/08/05 06:34:44;;;;;;;4.45;2.75;;;;;;;15.47;81.22;92489.16;2041698;70;20235;-81
2023/08/05 06:37:10;;;;;;;4.40;2.80;;;;;;;15.39;81.25;92494.50;2041611;70;20167;-81
2023/08/05 06:39:35;;;;;;;4.32;2.30;;;;;;;15.40;81.71;92487.47;2038508;70;20147;-82
2023/08/05 06:42:01;;;;;;;3.53;2.58;;;;;;;15.51;81.14;92488.59;2041598;70;20749;-82
2023/08/05 06:44:29;;;;;;;6.35;2.85;;;;;;;15.55;81.91;92491.59;2038346;70;20543;-84
2023/08/05 06:46:55;;;;;;;6.55;4.35;;;;;;;15.63;81.62;92494.03;2041751;70;20623;-89
2023/08/05 06:49:21;;;;;;;9.43;4.90;;;;;;;15.66;80.77;92490.63;2041683;70;20174;-84
2023/08/05 06:51:47;;;;;;;6.65;4.20;;;;;;;15.71;81.55;92495.09;2038186;70;20151;-81
2023/08/05 06:54:13;;;;;;;4.85;3.80;;;;;;;15.77;80.08;92491.75;2041590;70;20683;-81
2023/08/05 06:56:38;;;;;;;5.28;3.42;;;;;;;15.84;79.83;92498.38;2041560;70;20209;-80
2023/08/05 06:59:04;;;;;;;2.83;2.60;;;;;;;15.79;79.83;92485.44;2041619;70;20171;-80
2023/08/05 07:01:30;;;;;;;5.78;2.63;;;;;;;15.65;79.43;92491.28;2039105;70;20167;-81
2023/08/05 07:03:56;;;;;;;3.17;2.80;;;;;;;15.39;81.40;92494.50;2038420;70;20175;-81
2023/08/05 07:06:22;;;;;;;4.50;3.00;;;;;;;15.47;81.31;92492.00;2037734;70;20254;-82
2023/08/05 07:08:48;;;;;;;4.35;2.95;;;;;;;15.67;80.08;92497.78;2038206;70;20609;-82
2023/08/05 07:11:13;;;;;;;5.60;3.35;;;;;;;15.76;80.63;92498.81;2038671;70;20186;-82
2023/08/05 07:13:39;;;;;;;5.30;3.40;;;;;;;15.86;80.92;92502.03;2041259;70;20159;-82
2023/08/05 07:16:04;;;;;;;7.15;4.13;;;;;;;15.71;80.06;92500.03;2038263;70;20173;-82
2023/08/05 07:18:30;;;;;;;6.88;3.35;;;;;;;15.62;80.37;92490.44;2038241;70;20151;-79
2023/08/05 07:20:56;;;;;;;5.13;3.60;;;;;;;15.50;81.18;92499.22;2038420;70;20154;-80
2023/08/05 07:23:23;;;;;;;5.78;3.60;;;;;;;15.70;80.34;92495.75;2041598;70;20143;-85
2023/08/05 07:25:48;;;;;;;8.43;4.30;;;;;;;15.74;80.56;92488.09;2041885;70;20155;-86
2023/08/05 07:28:14;;;;;;;3.63;3.10;;;;;;;15.54;80.56;92481.63;2041673;70;20520;-80
2023/08/05 07:30:40;;;;;;;4.55;3.05;;;;;;;15.69;80.48;92486.50;2041698;70;20151;-85
2023/08/05 07:33:09;;;;;;;4.03;2.90;;;;;;;15.80;79.93;92470.56;2041627;70;20143;-80
2023/08/05 07:35:34;;;;;;;7.75;3.40;;;;;;;16.07;78.21;92483.66;2038279;70;20590;-81
2023/08/05 07:38:09;;;;;;;3.80;3.00;;;;;;;15.93;79.21;92485.97;2041614;70;20215;-84
2023/08/05 07:40:38;;;;;;;4.28;2.80;;;;;;;16.07;78.23;92492.16;2041750;70;20148;-83
2023/08/05 07:43:05;;;;;;;4.25;2.90;;;;;;;16.06;78.52;92501.34;2041593;70;20594;-80
2023/08/05 07:45:33;;;;;;;4.13;2.60;;;;;;;16.14;77.27;92501.66;2036868;70;20160;-81
2023/08/05 07:48:00;;;;;;;6.25;2.88;;;;;;;16.18;77.55;92498.97;2038287;70;20131;-81
2023/08/05 07:50:26;;;;;;;5.07;2.95;;;;;;;16.18;77.51;92499.69;2038204;70;20486;-84
2023/08/05 07:52:53;;;;;;;6.97;3.67;;;;;;;16.06;77.62;92504.19;2040469;70;20169;-80
2023/08/05 07:55:22;;;;;;;4.80;3.20;;;;;;;16.29;78.39;92508.56;2041540;70;20234;-82
2023/08/05 07:57:47;;;;;;;3.38;2.92;;;;;;;16.27;79.15;92503.56;2038255;70;20155;-83
2023/08/05 08:00:13;;;;;;;5.38;3.40;;;;;;;16.45;77.81;92503.50;2041218;70;20151;-82
2023/08/05 08:02:44;;;;;;;3.50;3.10;;;;;;;16.42;78.95;92499.84;2041564;70;20210;-83
2023/08/05 08:05:13;;;;;;;4.05;2.85;;;;;;;16.44;78.78;92494.22;2041754;70;20502;-81
2023/08/05 08:07:46;;;;;;;3.45;2.60;;;;;;;16.56;79.16;92496.06;2041462;70;20612;-80
2023/08/05 08:10:16;;;;;;;3.92;2.70;;;;;;;16.67;77.76;92498.59;2041017;70;20205;-81
2023/08/05 08:12:43;;;;;;;3.78;2.20;;;;;;;16.58;77.50;92498.97;2041547;70;20199;-83
2023/08/05 08:15:10;;;;;;;3.78;2.67;;;;;;;16.63;76.82;92489.19;2041428;70;20234;-79
2023/08/05 08:17:36;;;;;;;6.47;3.22;;;;;;;16.57;76.36;92494.66;2041429;70;20139;-81
2023/08/05 08:20:02;;;;;;;5.68;3.00;;;;;;;16.85;77.13;92492.09;2041440;70;20141;-78
2023/08/05 08:22:28;;;;;;;2.53;2.10;;;;;;;16.84;77.09;92488.53;2041976;70;20633;-86
2023/08/05 08:24:54;;;;;;;3.75;1.60;;;;;;;17.02;75.93;92486.31;2041512;70;20135;-83
2023/08/05 08:27:20;;;;;;;3.15;2.35;;;;;;;16.94;77.00;92494.56;2041536;70;20225;-80
2023/08/05 08:29:46;;;;;;;3.42;2.13;;;;;;;16.91;77.35;92486.66;2041456;70;20148;-83
2023/08/05 08:32:11;;;;;;;2.10;1.90;;;;;;;16.61;76.11;92492.69;2041515;70;20154;-82
2023/08/05 08:34:37;;;;;;;3.25;2.05;;;;;;;16.64;75.55;92499.91;2041540;70;20181;-82
2023/08/05 08:37:02;;;;;;;4.72;1.92;;;;;;;16.88;75.96;92493.63;2041519;70;20132;-85
2023/08/05 08:39:28;;;;;;;3.97;2.00;;;;;;;16.65;76.33;92486.44;2041566;70;20262;-81
2023/08/05 08:41:54;;;;;;;2.65;1.90;;;;;;;16.77;77.92;92486.88;2041537;70;20518;-81
2023/08/05 08:44:21;;;;;;;2.08;1.77;;;;;;;16.97;75.66;92479.03;2041369;70;20158;-82
2023/08/05 08:46:48;;;;;;;2.45;1.80;;;;;;;17.14;75.88;92477.47;2041291;70;20208;-82
2023/08/05 08:49:16;;;;;;;2.65;1.63;;;;;;;16.85;76.30;92464.41;2041308;70;20151;-82
2023/08/05 08:51:46;;;;;;;2.90;1.90;;;;;;;17.16;75.08;92476.81;2041292;70;20625;-82
2023/08/05 08:54:14;;;;;;;2.70;1.77;;;;;;;17.17;75.67;92476.13;2041305;70;20147;-84
2023/08/05 08:56:39;;;;;;;1.90;1.65;;;;;;;17.20;75.32;92482.63;2041341;70;20143;-84
2023/08/05 08:59:09;;;;;;;5.72;1.90;;;;;;;17.29;74.91;92484.34;2041363;70;20564;-83
2023/08/05 09:01:38;;;;;;;2.47;1.75;;;;;;;17.53;75.31;92481.53;2041569;70;20171;-86
2023/08/05 09:04:06;;;;;;;2.22;1.60;;;;;;;17.54;73.75;92485.84;2041371;70;20179;-83
2023/08/05 09:06:34;;;;;;;3.05;1.65;;;;;;;17.75;73.89;92501.47;2041591;70;20154;-81
2023/08/05 09:09:00;;;;;;;1.95;1.63;;;;;;;17.54;74.39;92494.38;2041435;70;20151;-82
2023/08/05 09:11:25;;;;;;;2.78;1.58;;;;;;;17.60;72.95;92496.72;2041317;70;20533;-83
2023/08/05 09:13:53;;;;;;;3.13;1.67;;;;;;;17.84;73.29;92493.91;2040970;70;20163;-84
2023/08/05 09:16:18;;;;;;;2.28;1.70;;;;;;;17.75;73.95;92487.97;2040653;70;20170;-83
2023/08/05 09:18:54;;;;;;;4.53;1.58;;;;;;;17.91;74.95;92481.31;2037548;70;20159;-84
2023/08/05 09:21:28;;;;;;;2.88;1.70;;;;;;;17.86;73.68;92491.13;2040791;70;20238;-84
2023/08/05 09:23:55;;;;;;;2.40;1.52;;;;;;;17.15;75.66;92483.88;2041402;70;20146;-84
2023/08/05 09:26:32;;;;;;;1.63;1.33;;;;;;;17.55;74.19;92475.94;2040388;70;20518;-85
2023/08/05 09:28:59;;;;;;;2.60;1.30;;;;;;;17.41;74.82;92470.53;2039811;70;20151;-84
2023/08/05 09:31:25;;;;;;;2.03;1.55;;;;;;;17.45;72.39;92473.47;2039875;70;20779;-84
2023/08/05 09:33:52;;;;;;;4.22;1.30;;;;;;;17.25;75.73;92467.88;2039881;70;20226;-84
2023/08/05 09:36:22;;;;;;;3.00;1.67;;;;;;;17.52;75.72;92471.56;2039887;70;20242;-83
2023/08/05 09:39:00;;;;;;;1.25;1.02;;;;;;;17.45;73.66;92473.47;2039848;70;20861;-85
2023/08/05 09:41:31;;;;;;;1.10;1.00;;;;;;;17.15;73.60;92481.03;2040416;70;20147;-84
2023/08/05 09:43:58;;;;;;;3.17;1.00;;;;;;;17.30;73.98;92471.56;2041224;70;20224;-86
2023/08/05 09:46:36;;;;;;;1.55;1.15;;;;;;;16.88;74.48;92470.91;2038103;70;20603;-82
2023/08/05 09:49:01;;;;;;;1.50;1.10;;;;;;;17.40;74.28;92479.69;2041400;70;20140;-82
2023/08/05 09:51:28;;;;;;;1.08;0.95;;;;;;;17.20;74.77;92474.09;2041422;70;20513;-84
2023/08/05 09:53:54;;;;;;;1.70;1.08;;;;;;;16.85;75.54;92472.94;2041496;70;20150;-86
2023/08/05 09:56:20;;;;;;;1.30;0.70;;;;;;;16.92;71.42;92480.28;2041254;70;20206;-83
2023/08/05 09:58:48;;;;;;;2.20;0.90;;;;;;;17.06;74.83;92468.66;2040953;70;20665;-83
2023/08/05 10:01:14;;;;;;;1.42;0.90;;;;;;;17.41;74.42;92470.53;2041210;70;20227;-83
2023/08/05 10:03:40;;;;;;;1.80;1.17;;;;;;;17.46;74.72;92468.53;2041254;70;20149;-86
2023/08/05 10:06:07;;;;;;;0.95;0.80;;;;;;;17.38;72.57;92469.00;2041254;70;20316;-81
2023/08/05 10:08:36;;;;;;;1.88;1.25;;;;;;;16.67;75.71;92469.44;2041154;70;20140;-82
2023/08/05 10:11:04;;;;;;;2.08;1.00;;;;;;;16.78;77.03;92471.28;2041274;70;20256;-81
2023/08/05 10:13:43;;;;;;;1.45;1.00;;;;;;;16.90;76.35;92471.69;2037968;70;20197;-82
2023/08/05 10:16:09;;;;;;;2.90;1.10;;;;;;;17.40;75.30;92465.47;2041234;70;20215;-83
2023/08/05 10:18:37;;;;;;;2.70;1.50;;;;;;;17.09;76.79;92452.38;2041377;70;20334;-83
2023/08/05 10:21:05;;;;;;;1.85;0.98;;;;;;;17.16;75.43;92439.81;2041165;70;20231;-82
2023/08/05 10:23:37;;;;;;;1.17;1.05;;;;;;;17.29;76.59;92435.97;2041507;70;20195;-81
2023/08/05 10:26:06;;;;;;;2.00;1.00;;;;;;;17.98;74.19;92438.13;2040206;70;20191;-82
2023/08/05 10:28:34;;;;;;;1.27;0.85;;;;;;;18.13;71.85;92438.53;2040275;70;20143;-80
2023/08/05 10:31:04;;;;;;;4.43;0.80;;;;;;;17.90;72.09;92449.25;2040138;70;20697;-86
2023/08/05 10:33:30;;;;;;;1.98;0.63;;;;;;;17.68;73.53;92442.84;2040017;70;20178;-87
2023/08/05 10:36:06;;;;;;;0.60;0.60;;;;;;;18.02;71.83;92441.06;2040224;70;20322;-82
2023/08/05 10:38:41;;;;;;;2.30;0.80;;;;;;;17.36;75.19;92440.47;2040220;70;20155;-83
2023/08/05 10:41:10;;;;;;;2.00;0.90;;;;;;;17.60;73.47;92436.94;2040129;70;20151;-81
2023/08/05 10:43:37;;;;;;;1.45;0.90;;;;;;;17.72;73.43;92435.16;2040219;70;20191;-81
2023/08/05 10:46:06;;;;;;;1.98;0.75;;;;;;;18.04;73.19;92432.59;2040541;70;20156;-82
2023/08/05 10:48:47;;;;;;;1.92;0.90;;;;;;;18.36;73.38;92442.72;2041413;70;20223;-82
2023/08/05 10:51:20;;;;;;;1.85;0.77;;;;;;;18.54;73.53;92446.81;2041380;70;20170;-82
2023/08/05 10:53:55;;;;;;;1.15;1.05;;;;;;;18.40;71.32;92448.53;2041110;70;20140;-82
2023/08/05 10:56:29;;;;;;;1.90;0.85;;;;;;;18.51;72.34;92438.88;2041149;70;20151;-81
2023/08/05 10:58:54;;;;;;;2.22;0.98;;;;;;;18.49;70.99;92438.81;2041149;70;20144;-83
2023/08/05 11:01:20;;;;;;;1.00;0.80;;;;;;;18.22;69.79;92440.94;2041436;70;20132;-82
2023/08/05 11:03:52;;;;;;;1.23;0.98;;;;;;;18.20;73.63;92435.19;2041448;70;20155;-82
2023/08/05 11:06:24;;;;;;;0.90;0.80;;;;;;;18.42;72.06;92428.66;2041148;70;20628;-84
2023/08/05 11:08:51;;;;;;;1.52;0.80;;;;;;;18.40;72.26;92426.47;2041196;70;20203;-87
2023/08/05 11:11:17;;;;;;;1.67;0.90;;;;;;;18.17;72.14;92424.38;2041433;70;20238;-80
2023/08/05 11:13:47;;;;;;;2.33;0.85;;;;;;;18.38;72.46;92422.84;2041663;70;20147;-82
2023/08/05 11:16:14;;;;;;;0.65;0.65;;;;;;;18.20;70.53;92418.09;2041788;70;20159;-84
2023/08/05 11:18:41;;;;;;;1.88;0.80;;;;;;;18.50;70.51;92415.34;2041544;70;20235;-81
2023/08/05 11:21:13;;;;;;;1.00;0.90;;;;;;;18.34;70.11;92414.91;2041307;70;20147;-82
2023/08/05 11:23:42;;;;;;;0.80;0.80;;;;;;;17.54;72.48;92409.00;2040920;70;20230;-80
2023/08/05 11:26:08;;;;;;;1.40;0.90;;;;;;;17.51;73.57;92396.84;2041105;70;20235;-80
2023/08/05 11:28:35;;;;;;;0.80;0.80;;;;;;;17.94;71.64;92406.66;2041105;70;20266;-80
2023/08/05 11:31:01;;;;;;;1.00;0.90;;;;;;;18.47;71.13;92399.59;2041264;70;20627;-82
2023/08/05 11:33:28;;;;;;;1.65;0.90;;;;;;;18.75;69.98;92396.78;2041283;70;20238;-82